Rickmansworth, United Kingdom
Current Conditions -  °F | °C
As of 8:50 PM on Wednesday 26 Nov 2014 (Local Time) from EGWU Reporting Station
Overcast Overcast  
Wind Chill: 48°   Ceiling: 200
Heat Index: 48°   Visibility: 1.2mi
Dew Point: 48°   Wind: 3mph
Humidity: 100%   Direction: 60°ENE
Pressure: 29.77"   Gusts: NA
Location:  51.64°N, 0.47°W
Report Text: EGWU 262050Z AUTO 06003KT 2000 // OVC002/// 09/09 Q1008
Loading
Personal Weather Stations






























Interactive Weather Map New forecast layout! Learn more

10-Day Weather Forecast

Advertisements
Track Severe Weather on mobile